Time;durP1;ratioP1;P1;durP2;ratioP2;P2;SDS_P1;SDS_P2;PMS_P1;PMS_P2;Temp;Humidity;BMP_temperature;BMP_pressure;BME280_temperature;BME280_humidity;BME280_pressure;Samples;Min_cycle;Max_cycle;Signal;HPM_P1;HPM_P2
2020/12/14 00:00:31;;;;;;;21.68;11.78;;;;;;;-0.30;100.00;99374.72;1811125;79;21845;-65
2020/12/14 00:02:59;;;;;;;19.48;11.08;;;;;;;-0.31;100.00;99382.53;1808931;78;21828;-65
2020/12/14 00:05:27;;;;;;;21.77;10.75;;;;;;;-0.33;100.00;99376.03;1809322;78;20911;-66
2020/12/14 00:07:55;;;;;;;18.80;9.48;;;;;;;-0.32;100.00;99374.97;1824510;78;20923;-66
2020/12/14 00:10:23;;;;;;;16.30;8.98;;;;;;;-0.32;100.00;99380.89;1824634;78;20954;-66
2020/12/14 00:12:50;;;;;;;18.35;10.30;;;;;;;-0.32;100.00;99389.80;1824618;78;21196;-66
2020/12/14 00:15:18;;;;;;;15.48;8.78;;;;;;;-0.31;100.00;99390.09;1824472;78;21887;-66
2020/12/14 00:17:46;;;;;;;15.60;9.45;;;;;;;-0.32;100.00;99388.99;1824706;78;21477;-65
2020/12/14 00:20:14;;;;;;;15.48;9.45;;;;;;;-0.32;100.00;99388.45;1824520;78;20882;-66
2020/12/14 00:22:43;;;;;;;16.27;9.28;;;;;;;-0.32;100.00;99392.50;1824717;78;21568;-66
2020/12/14 00:25:11;;;;;;;16.55;9.23;;;;;;;-0.31;100.00;99394.14;1824532;78;23564;-66
2020/12/14 00:27:38;;;;;;;16.45;9.85;;;;;;;-0.31;100.00;99387.92;1824493;78;20950;-66
2020/12/14 00:30:06;;;;;;;15.78;8.40;;;;;;;-0.32;100.00;99391.16;1824584;78;20918;-66
2020/12/14 00:32:34;;;;;;;13.30;8.28;;;;;;;-0.31;100.00;99389.27;1824535;78;21033;-67
2020/12/14 00:35:02;;;;;;;16.35;9.03;;;;;;;-0.31;100.00;99388.74;1824552;78;20974;-67
2020/12/14 00:37:30;;;;;;;14.43;8.70;;;;;;;-0.30;100.00;99384.16;1824582;78;21474;-67
2020/12/14 00:39:58;;;;;;;18.70;9.90;;;;;;;-0.32;100.00;99386.30;1824519;78;20887;-66
2020/12/14 00:42:26;;;;;;;14.30;8.95;;;;;;;-0.34;100.00;99389.23;1824550;78;20922;-66
2020/12/14 00:44:56;;;;;;;14.35;9.20;;;;;;;-0.34;100.00;99390.59;1824572;78;20891;-66
2020/12/14 00:47:24;;;;;;;17.67;9.15;;;;;;;-0.32;100.00;99387.64;1824574;78;21025;-66
2020/12/14 00:49:52;;;;;;;13.78;8.70;;;;;;;-0.31;100.00;99391.97;1824585;78;21419;-66
2020/12/14 00:52:20;;;;;;;15.88;8.80;;;;;;;-0.31;100.00;99391.44;1824450;78;21001;-66
2020/12/14 00:54:48;;;;;;;13.72;8.50;;;;;;;-0.30;100.00;99383.63;1824551;78;21429;-66
2020/12/14 00:57:15;;;;;;;15.63;9.10;;;;;;;-0.29;100.00;99387.96;1824560;78;21476;-66
2020/12/14 00:59:43;;;;;;;15.48;9.20;;;;;;;-0.30;100.00;99383.63;1824596;78;20962;-66
2020/12/14 01:02:11;;;;;;;14.58;9.00;;;;;;;-0.28;100.00;99390.13;1821890;77;21331;-66
2020/12/14 01:04:38;;;;;;;15.60;8.33;;;;;;;-0.28;100.00;99385.55;1816261;79;21069;-66
2020/12/14 01:07:06;;;;;;;17.23;9.33;;;;;;;-0.29;100.00;99388.49;1816187;79;21472;-66
2020/12/14 01:09:33;;;;;;;18.25;9.80;;;;;;;-0.30;100.00;99393.61;1816186;79;20994;-66
2020/12/14 01:12:02;;;;;;;16.12;8.85;;;;;;;-0.29;100.00;99402.80;1816158;79;21021;-66
2020/12/14 01:14:30;;;;;;;15.55;9.68;;;;;;;-0.27;100.00;99397.97;1816193;79;22101;-66
2020/12/14 01:16:58;;;;;;;14.78;9.18;;;;;;;-0.28;100.00;99393.64;1816108;79;20946;-66
2020/12/14 01:19:25;;;;;;;20.60;10.80;;;;;;;-0.27;100.00;99396.63;1816254;79;21500;-66
2020/12/14 01:21:53;;;;;;;20.05;10.40;;;;;;;-0.25;100.00;99398.54;1816133;79;21564;-66
2020/12/14 01:24:21;;;;;;;17.32;9.90;;;;;;;-0.25;100.00;99399.89;1816225;79;20966;-66
2020/12/14 01:26:49;;;;;;;18.80;9.55;;;;;;;-0.27;100.00;99400.67;1816169;79;21146;-66
2020/12/14 01:29:17;;;;;;;22.00;10.35;;;;;;;-0.29;100.00;99397.94;1816079;79;20954;-66
2020/12/14 01:31:44;;;;;;;19.67;10.85;;;;;;;-0.29;100.00;99395.23;1816183;79;21453;-66
2020/12/14 01:34:12;;;;;;;18.57;10.55;;;;;;;-0.30;100.00;99387.67;1816108;79;20973;-66
2020/12/14 01:36:40;;;;;;;21.07;10.63;;;;;;;-0.31;100.00;99387.92;1816185;79;20989;-66
2020/12/14 01:39:08;;;;;;;20.62;10.18;;;;;;;-0.30;100.00;99390.91;1816183;79;21358;-65
2020/12/14 01:41:35;;;;;;;19.62;9.83;;;;;;;-0.30;100.00;99385.52;1816065;79;20997;-66
2020/12/14 01:44:03;;;;;;;20.08;10.78;;;;;;;-0.30;100.00;99390.91;1816160;79;21092;-67
2020/12/14 01:46:31;;;;;;;21.27;11.20;;;;;;;-0.30;100.00;99389.03;1816098;79;20981;-66
2020/12/14 01:49:01;;;;;;;21.48;10.72;;;;;;;-0.31;100.00;99387.39;1816157;79;21053;-67
2020/12/14 01:51:31;;;;;;;20.77;11.70;;;;;;;-0.32;100.00;99386.30;1764528;80;21257;-66
2020/12/14 01:54:00;;;;;;;22.98;10.80;;;;;;;-0.33;100.00;99386.83;1784059;80;21484;-67
2020/12/14 01:56:28;;;;;;;19.77;10.90;;;;;;;-0.36;100.00;99386.79;1784000;80;20941;-66
2020/12/14 01:58:55;;;;;;;24.30;11.08;;;;;;;-0.37;100.00;99385.69;1783993;80;20966;-67
2020/12/14 02:01:23;;;;;;;20.97;11.95;;;;;;;-0.37;100.00;99387.03;1784050;80;21544;-67
2020/12/14 02:03:51;;;;;;;21.25;11.38;;;;;;;-0.38;100.00;99388.92;1806512;79;21135;-67
2020/12/14 02:06:19;;;;;;;20.57;11.63;;;;;;;-0.37;100.00;99387.03;1810948;79;21152;-66
2020/12/14 02:08:47;;;;;;;25.88;13.25;;;;;;;-0.38;100.00;99392.14;1811059;79;21445;-66
2020/12/14 02:11:15;;;;;;;21.87;11.95;;;;;;;-0.36;100.00;99388.14;1810991;79;20930;-66
2020/12/14 02:13:42;;;;;;;21.30;11.48;;;;;;;-0.37;100.00;99385.16;1786003;79;20990;-66
2020/12/14 02:16:10;;;;;;;25.68;12.10;;;;;;;-0.36;100.00;99390.84;1810989;79;21265;-66
2020/12/14 02:18:38;;;;;;;27.42;12.47;;;;;;;-0.36;100.00;99392.72;1810960;79;20891;-66
2020/12/14 02:21:06;;;;;;;23.73;11.88;;;;;;;-0.36;100.00;99391.37;1811079;78;21053;-66
2020/12/14 02:23:33;;;;;;;24.47;11.85;;;;;;;-0.36;100.00;99392.72;1810918;78;21049;-65
2020/12/14 02:26:01;;;;;;;25.30;12.85;;;;;;;-0.37;100.00;99393.78;1810977;79;21560;-66
2020/12/14 02:28:29;;;;;;;22.55;12.60;;;;;;;-0.37;100.00;99391.90;1811061;79;23436;-66
2020/12/14 02:30:56;;;;;;;26.15;12.20;;;;;;;-0.38;100.00;99388.92;1810905;79;20949;-66
2020/12/14 02:33:25;;;;;;;25.20;12.68;;;;;;;-0.37;100.00;99385.69;1810944;79;20942;-66
2020/12/14 02:35:53;;;;;;;26.60;12.23;;;;;;;-0.38;100.00;99381.36;1811024;78;21549;-66
2020/12/14 02:38:22;;;;;;;27.70;12.30;;;;;;;-0.34;100.00;99383.84;1810944;79;20986;-66
2020/12/14 02:40:50;;;;;;;21.70;12.15;;;;;;;-0.32;100.00;99377.67;1811006;79;21191;-66
2020/12/14 02:43:18;;;;;;;24.05;12.23;;;;;;;-0.33;100.00;99380.08;1810957;79;21864;-66
2020/12/14 02:45:45;;;;;;;23.50;12.40;;;;;;;-0.34;100.00;99388.70;1817570;77;21088;-66
2020/12/14 02:48:13;;;;;;;25.27;13.10;;;;;;;-0.34;100.00;99386.54;1844197;77;21576;-66
2020/12/14 02:50:41;;;;;;;27.98;12.23;;;;;;;-0.37;100.00;99386.50;1844314;77;20962;-66
2020/12/14 02:53:09;;;;;;;25.00;12.73;;;;;;;-0.38;100.00;99390.27;1844263;77;21175;-67
2020/12/14 02:55:37;;;;;;;24.25;12.43;;;;;;;-0.39;100.00;99404.81;1844250;77;21053;-67
2020/12/14 02:58:05;;;;;;;20.32;10.63;;;;;;;-0.39;100.00;99404.81;1844267;77;20926;-66
2020/12/14 03:00:32;;;;;;;29.75;12.78;;;;;;;-0.41;100.00;99409.64;1844324;77;21548;-66
2020/12/14 03:03:00;;;;;;;29.27;14.10;;;;;;;-0.42;100.00;99413.40;1847004;77;21596;-66
2020/12/14 03:05:27;;;;;;;27.75;14.07;;;;;;;-0.42;100.00;99407.19;1852606;77;21174;-66
2020/12/14 03:07:55;;;;;;;27.77;13.08;;;;;;;-0.40;100.00;99404.53;1852491;77;21508;-67
2020/12/14 03:10:23;;;;;;;24.05;11.45;;;;;;;-0.39;100.00;99398.07;1852564;77;21119;-66
2020/12/14 03:12:51;;;;;;;24.82;12.35;;;;;;;-0.39;100.00;99404.00;1852638;77;20985;-67
2020/12/14 03:15:19;;;;;;;25.32;13.18;;;;;;;-0.38;100.00;99404.28;1852539;77;21033;-67
2020/12/14 03:17:47;;;;;;;22.95;12.65;;;;;;;-0.39;100.00;99401.30;1852658;77;21624;-67
2020/12/14 03:20:15;;;;;;;23.57;11.78;;;;;;;-0.39;100.00;99404.00;1852548;77;20938;-68
2020/12/14 03:22:43;;;;;;;24.92;12.13;;;;;;;-0.38;100.00;99400.23;1852479;77;21116;-66
2020/12/14 03:25:10;;;;;;;24.82;11.95;;;;;;;-0.37;100.00;99406.73;1852504;77;21041;-66
2020/12/14 03:27:38;;;;;;;23.87;12.45;;;;;;;-0.35;100.00;99398.39;1852553;77;21029;-66
2020/12/14 03:30:24;;;;;;;25.85;11.83;;;;;;;-0.34;100.00;99398.68;1852598;77;21327;-66
2020/12/14 03:33:09;;;;;;;25.15;12.45;;;;;;;-0.35;100.00;99393.00;1852589;77;21628;-66
2020/12/14 03:35:55;;;;;;;19.30;10.70;;;;;;;-0.35;100.00;99388.95;1852586;77;20914;-67
2020/12/14 03:38:23;;;;;;;21.00;11.40;;;;;;;-0.36;100.00;99394.06;1798145;77;20978;-67
2020/12/14 03:40:51;;;;;;;20.37;10.65;;;;;;;-0.36;100.00;99391.37;1852578;77;20942;-67
2020/12/14 03:43:18;;;;;;;21.07;10.45;;;;;;;-0.37;100.00;99398.64;1852519;77;21342;-66
2020/12/14 03:45:48;;;;;;;26.23;11.00;;;;;;;-0.37;100.00;99397.30;1852435;77;21095;-66
2020/12/14 03:48:19;;;;;;;20.95;10.70;;;;;;;-0.35;100.00;99406.48;1852558;77;21044;-66
2020/12/14 03:50:47;;;;;;;20.70;11.33;;;;;;;-0.35;100.00;99400.56;1852570;77;20914;-66
2020/12/14 03:53:15;;;;;;;20.00;10.40;;;;;;;-0.35;100.00;99395.70;1852524;77;21551;-66
2020/12/14 03:55:42;;;;;;;18.48;10.95;;;;;;;-0.35;100.00;99391.66;1816394;77;21189;-66
2020/12/14 03:58:10;;;;;;;19.67;10.35;;;;;;;-0.34;100.00;99394.63;1812997;79;21017;-67
2020/12/14 04:00:39;;;;;;;19.40;11.18;;;;;;;-0.37;100.00;99391.08;1840004;77;21051;-67
2020/12/14 04:03:08;;;;;;;19.40;10.72;;;;;;;-0.36;100.00;99394.06;1812079;78;21049;-66
2020/12/14 04:05:37;;;;;;;19.92;11.43;;;;;;;-0.32;100.00;99395.20;1837688;77;20939;-66
2020/12/14 04:08:05;;;;;;;16.60;9.68;;;;;;;-0.33;100.00;99393.56;1849326;77;21351;-66
2020/12/14 04:10:35;;;;;;;21.27;11.12;;;;;;;-0.34;100.00;99390.59;1849207;77;20989;-66
2020/12/14 04:13:04;;;;;;;20.70;10.65;;;;;;;-0.35;100.00;99387.61;1849416;77;21559;-66
2020/12/14 04:15:31;;;;;;;22.67;11.35;;;;;;;-0.37;100.00;99386.50;1849213;77;20974;-66
2020/12/14 04:17:59;;;;;;;21.15;10.68;;;;;;;-0.39;100.00;99389.16;1849258;77;21044;-67
2020/12/14 04:20:27;;;;;;;18.23;10.25;;;;;;;-0.39;100.00;99399.42;1849292;77;21342;-66
2020/12/14 04:22:55;;;;;;;20.82;10.60;;;;;;;-0.40;100.00;99402.36;1849152;77;20934;-66
2020/12/14 04:25:23;;;;;;;17.35;9.60;;;;;;;-0.41;100.00;99400.20;1816719;77;21548;-67
2020/12/14 04:27:51;;;;;;;17.45;9.75;;;;;;;-0.41;100.00;99405.59;1809882;79;21111;-66
2020/12/14 04:30:20;;;;;;;16.65;9.68;;;;;;;-0.41;100.00;99416.91;1809896;79;21157;-66
2020/12/14 04:32:48;;;;;;;20.30;10.78;;;;;;;-0.41;100.00;99420.43;1809957;79;21336;-66
2020/12/14 04:35:17;;;;;;;24.07;11.20;;;;;;;-0.40;100.00;99427.98;1809861;79;20954;-67
2020/12/14 04:37:46;;;;;;;17.45;10.15;;;;;;;-0.38;100.00;99427.21;1809904;79;20935;-66
2020/12/14 04:40:13;;;;;;;22.13;10.53;;;;;;;-0.38;100.00;99436.65;1809988;79;21552;-66
2020/12/14 04:42:41;;;;;;;20.32;10.40;;;;;;;-0.39;100.00;99435.83;1809908;79;21131;-65
2020/12/14 04:45:11;;;;;;;19.32;9.55;;;;;;;-0.37;100.00;99440.45;1809856;79;22783;-67
2020/12/14 04:47:39;;;;;;;23.10;11.85;;;;;;;-0.37;100.00;99446.38;1781367;79;21485;-65
2020/12/14 04:50:07;;;;;;;20.20;10.53;;;;;;;-0.37;100.00;99440.98;1809904;79;20915;-66
2020/12/14 04:52:35;;;;;;;19.85;11.03;;;;;;;-0.36;100.00;99447.48;1809870;79;20916;-66
2020/12/14 04:55:03;;;;;;;22.55;11.30;;;;;;;-0.34;100.00;99453.44;1781115;79;21124;-67
2020/12/14 04:57:32;;;;;;;19.98;10.93;;;;;;;-0.32;100.00;99458.59;1809874;79;21374;-67
2020/12/14 05:00:00;;;;;;;18.57;10.70;;;;;;;-0.31;100.00;99462.11;1809828;79;21029;-67
2020/12/14 05:02:28;;;;;;;19.45;10.63;;;;;;;-0.29;100.00;99459.45;1809910;79;21477;-67
2020/12/14 05:04:55;;;;;;;16.87;9.30;;;;;;;-0.27;100.00;99458.67;1812490;79;21049;-65
2020/12/14 05:07:44;;;;;;;18.50;9.98;;;;;;;-0.26;100.00;99456.78;1813064;79;20970;-66
2020/12/14 05:10:12;;;;;;;18.07;10.35;;;;;;;-0.27;100.00;99459.20;1813025;79;21364;-66
2020/12/14 05:12:41;;;;;;;20.05;10.45;;;;;;;-0.29;100.00;99459.45;1812937;79;21172;-66
2020/12/14 05:15:21;;;;;;;17.15;10.05;;;;;;;-0.31;100.00;99461.57;1813033;79;20918;-65
2020/12/14 05:17:51;;;;;;;17.65;9.70;;;;;;;-0.32;100.00;99463.17;1827404;77;20907;-66
2020/12/14 05:20:20;;;;;;;19.80;11.08;;;;;;;-0.32;100.00;99469.91;1820100;77;21044;-67
2020/12/14 05:23:04;;;;;;;17.07;9.55;;;;;;;-0.32;100.00;99467.22;1835202;77;21370;-66
2020/12/14 05:25:32;;;;;;;18.12;9.78;;;;;;;-0.32;100.00;99468.56;1843543;77;21149;-66
2020/12/14 05:28:14;;;;;;;22.30;11.57;;;;;;;-0.32;100.00;99471.27;1852422;77;21013;-66
2020/12/14 05:30:44;;;;;;;25.62;12.90;;;;;;;-0.32;100.00;99486.09;1835217;77;21005;-66
2020/12/14 05:33:15;;;;;;;21.40;11.65;;;;;;;-0.34;100.00;99485.00;1819005;78;21161;-65
2020/12/14 05:35:44;;;;;;;37.15;16.27;;;;;;;-0.34;100.00;99491.73;1819013;78;21205;-66
2020/12/14 05:38:24;;;;;;;34.33;16.45;;;;;;;-0.33;100.00;99483.93;1823450;77;21554;-67
2020/12/14 05:41:00;;;;;;;26.33;14.15;;;;;;;-0.31;100.00;99480.98;1852542;77;21588;-66
2020/12/14 05:43:30;;;;;;;24.25;12.65;;;;;;;-0.31;100.00;99484.50;1838967;77;21465;-66
2020/12/14 05:46:12;;;;;;;22.17;11.35;;;;;;;-0.33;100.00;99475.84;1819091;78;20884;-67
2020/12/14 05:48:41;;;;;;;;;;;;;;;-0.32;100.00;99488.80;1827772;77;21464;-67
2020/12/14 05:51:09;;;;;;;23.27;11.33;;;;;;;-0.32;100.00;99487.45;1849421;77;20182;-66
2020/12/14 05:53:44;;;;;;;28.45;14.25;;;;;;;-0.34;100.00;99485.00;1830200;77;21140;-68
2020/12/14 05:56:11;;;;;;;22.30;11.60;;;;;;;-0.35;100.00;99483.36;1812999;79;21065;-67
2020/12/14 05:58:40;;;;;;;26.87;12.55;;;;;;;-0.36;100.00;99485.23;1813020;79;21140;-66
2020/12/14 06:01:08;;;;;;;29.52;14.50;;;;;;;-0.36;100.00;99491.16;1812985;79;21359;-66
2020/12/14 06:03:38;;;;;;;23.30;12.13;;;;;;;-0.37;100.00;99486.83;1812198;79;21010;-66
2020/12/14 06:06:10;;;;;;;25.00;12.65;;;;;;;-0.36;100.00;99485.77;1809787;79;21466;-68
2020/12/14 06:08:50;;;;;;;23.02;11.85;;;;;;;-0.36;100.00;99485.77;1842833;77;21059;-66
2020/12/14 06:11:26;;;;;;;25.92;13.18;;;;;;;-0.38;100.00;99486.55;1849337;77;20906;-67
2020/12/14 06:13:58;;;;;;;21.42;11.90;;;;;;;-0.36;100.00;99497.91;1820717;77;21373;-67
2020/12/14 06:16:29;;;;;;;53.30;24.27;;;;;;;-0.34;100.00;99498.48;1849137;77;20918;-67
2020/12/14 06:18:57;;;;;;;23.10;12.50;;;;;;;-0.35;100.00;99503.59;1848853;77;21017;-65
2020/12/14 06:21:55;;;;;;;29.40;14.23;;;;;;;-0.35;100.00;99506.28;1821402;77;22052;-66
2020/12/14 06:24:23;;;;;;;23.45;11.38;;;;;;;-0.34;100.00;99511.44;1796528;78;21105;-67
2020/12/14 06:26:52;;;;;;;25.23;13.68;;;;;;;-0.32;100.00;99509.84;1821512;77;21185;-67
2020/12/14 06:29:34;;;;;;;19.82;10.72;;;;;;;-0.30;100.00;99519.04;1821417;78;21043;-67
2020/12/14 06:32:02;;;;;;;18.10;10.35;;;;;;;-0.29;100.00;99518.80;1821584;78;21527;-67
2020/12/14 06:34:38;;;;;;;20.25;11.08;;;;;;;-0.26;100.00;99526.93;1821429;78;21029;-67
2020/12/14 06:37:05;;;;;;;21.65;10.72;;;;;;;-0.27;100.00;99526.11;1821542;78;20910;-67
2020/12/14 06:39:37;;;;;;;22.15;11.28;;;;;;;-0.28;100.00;99527.17;1821550;78;22233;-67
2020/12/14 06:42:17;;;;;;;22.70;12.60;;;;;;;-0.25;100.00;99529.91;1821813;78;20930;-68
2020/12/14 06:44:51;;;;;;;20.17;11.25;;;;;;;-0.25;100.00;99532.08;1820827;78;21774;-74
2020/12/14 06:47:19;;;;;;;24.05;12.82;;;;;;;-0.25;100.00;99529.38;1819858;78;21128;-72
2020/12/14 06:49:47;;;;;;;20.08;11.85;;;;;;;-0.25;100.00;99527.22;1821443;78;20907;-74
2020/12/14 06:52:35;;;;;;;21.40;12.20;;;;;;;-0.25;100.00;99524.52;1821317;78;21184;-72
2020/12/14 06:55:03;;;;;;;29.18;14.58;;;;;;;-0.24;100.00;99516.18;1821448;78;21592;-78
2020/12/14 06:57:38;;;;;;;26.77;12.25;;;;;;;-0.23;100.00;99517.81;1821521;78;21002;-74
2020/12/14 07:00:07;;;;;;;25.35;13.08;;;;;;;-0.24;100.00;99524.27;1821437;78;20920;-75
2020/12/14 07:02:36;;;;;;;24.87;12.93;;;;;;;-0.24;100.00;99525.62;1821455;77;21516;-70
2020/12/14 07:05:04;;;;;;;26.68;13.32;;;;;;;-0.24;100.00;99527.50;1821198;77;21348;-77
2020/12/14 07:07:33;;;;;;;35.75;17.17;;;;;;;-0.24;100.00;99529.67;1821286;78;21096;-73
2020/12/14 07:10:10;;;;;;;36.58;16.95;;;;;;;-0.23;100.00;99532.66;1821427;78;21132;-75
2020/12/14 07:12:44;;;;;;;31.75;17.57;;;;;;;-0.20;100.00;99538.91;1821452;77;21504;-71
2020/12/14 07:15:30;;;;;;;28.07;15.88;;;;;;;-0.16;100.00;99543.28;1821426;78;20978;-75
2020/12/14 07:18:10;;;;;;;26.00;14.50;;;;;;;-0.11;100.00;99551.45;1790645;78;21493;-76
2020/12/14 07:20:47;;;;;;;22.22;12.63;;;;;;;-0.08;100.00;99550.44;1821379;77;21520;-73
2020/12/14 07:23:15;;;;;;;24.30;13.98;;;;;;;-0.08;100.00;99559.87;1802134;78;21458;-71
2020/12/14 07:25:48;;;;;;;26.95;14.33;;;;;;;-0.08;100.00;99567.97;1803239;78;21116;-70
2020/12/14 07:28:16;;;;;;;;;;;;;;;-0.05;100.00;99560.73;1824132;78;20970;-69
2020/12/14 07:30:43;;;;;;;34.53;19.17;;;;;;;-0.03;100.00;99561.31;1821384;78;22022;-72
2020/12/14 07:33:11;;;;;;;27.73;15.45;;;;;;;-0.02;100.00;99565.64;1821214;78;21957;-71
2020/12/14 07:35:39;;;;;;;28.83;15.50;;;;;;;-0.02;100.00;99553.50;1821334;78;20911;-70
2020/12/14 07:38:11;;;;;;;40.43;22.42;;;;;;;0.00;100.00;99555.95;1821349;78;21145;-72
2020/12/14 07:40:39;;;;;;;37.85;20.40;;;;;;;0.01;100.00;99558.91;1821523;78;21462;-71
2020/12/14 07:43:07;;;;;;;24.37;13.30;;;;;;;-0.01;100.00;99559.19;1821343;78;21136;-76
2020/12/14 07:45:34;;;;;;;31.35;16.45;;;;;;;-0.01;100.00;99560.53;1821292;78;20942;-68
2020/12/14 07:48:02;;;;;;;44.42;24.35;;;;;;;-0.03;100.00;99564.01;1821436;78;21005;-69
2020/12/14 07:50:30;;;;;;;32.10;17.00;;;;;;;-0.01;100.00;99566.46;1837966;77;21027;-70
2020/12/14 07:52:57;;;;;;;29.18;16.37;;;;;;;-0.02;100.00;99566.99;1842447;77;21033;-71
2020/12/14 07:55:26;;;;;;;23.52;15.25;;;;;;;-0.01;100.00;99576.73;1821577;77;21480;-70
2020/12/14 07:57:55;;;;;;;27.17;15.90;;;;;;;0.00;100.00;99578.33;1849474;77;20969;-70
2020/12/14 08:00:24;;;;;;;32.38;19.23;;;;;;;0.02;100.00;99575.91;1823864;77;21108;-75
2020/12/14 08:03:01;;;;;;;32.03;17.65;;;;;;;0.07;100.00;99576.00;1835337;77;21551;-70
2020/12/14 08:05:24;;;;;;;;;;;;;;;0.07;100.00;99582.75;1822990;77;21041;-72
2020/12/14 08:08:04;;;;;;;41.95;19.55;;;;;;;0.08;100.00;99578.98;1849298;77;20484;-72
2020/12/14 08:10:36;;;;;;;51.65;26.40;;;;;;;0.10;100.00;99579.02;1839472;77;21552;-74
2020/12/14 08:13:09;;;;;;;40.25;19.90;;;;;;;0.15;100.00;99577.75;1825330;77;20986;-73
2020/12/14 08:15:38;;;;;;;32.38;18.50;;;;;;;0.18;100.00;99577.79;1837990;77;20987;-76
2020/12/14 08:18:07;;;;;;;39.85;21.35;;;;;;;0.20;100.00;99577.02;1817185;77;21082;-76
2020/12/14 08:20:36;;;;;;;33.67;18.48;;;;;;;0.20;100.00;99568.38;1816559;77;23435;-76
2020/12/14 08:23:19;;;;;;;29.37;16.77;;;;;;;0.22;100.00;99569.48;1821030;77;21550;-74
2020/12/14 08:28:34;;;;;;;39.18;17.70;;;;;;;0.33;100.00;99563.17;1860288;76;23200;-77
2020/12/14 08:31:05;;;;;;;47.58;21.85;;;;;;;0.29;100.00;99568.25;1825454;78;21564;-75
2020/12/14 08:33:33;;;;;;;36.13;17.17;;;;;;;0.29;100.00;99566.08;1758192;81;21596;-76
2020/12/14 08:36:10;;;;;;;30.20;15.65;;;;;;;0.31;100.00;99562.59;1743854;82;21067;-74
2020/12/14 08:38:39;;;;;;;37.75;18.15;;;;;;;0.30;100.00;99561.78;1740753;82;21616;-74
2020/12/14 08:41:07;;;;;;;42.20;18.92;;;;;;;0.30;100.00;99559.61;1738323;82;20943;-73
2020/12/14 08:43:35;;;;;;;56.25;26.97;;;;;;;0.31;100.00;99561.25;1749567;80;20893;-73
2020/12/14 08:46:11;;;;;;;53.40;26.73;;;;;;;0.32;100.00;99566.94;1743285;82;22043;-75
2020/12/14 08:48:54;;;;;;;42.08;22.58;;;;;;;0.38;100.00;99563.23;1888704;76;22725;-74
2020/12/14 08:51:31;;;;;;;36.25;19.50;;;;;;;0.36;100.00;99559.97;1774671;80;21046;-73
2020/12/14 08:54:14;;;;;;;38.92;18.82;;;;;;;0.38;100.00;99559.19;1749042;81;21447;-74
2020/12/14 08:56:42;;;;;;;29.92;16.45;;;;;;;0.38;100.00;99559.19;1749499;80;21020;-74
2020/12/14 08:59:21;;;;;;;41.63;20.75;;;;;;;0.37;100.00;99552.69;1822137;77;21558;-74
2020/12/14 09:02:04;;;;;;;27.32;15.20;;;;;;;0.35;100.00;99554.81;1781510;79;21055;-74
2020/12/14 09:04:36;;;;;;;29.45;15.38;;;;;;;0.34;100.00;99556.70;1822132;77;21573;-75
2020/12/14 09:07:04;;;;;;;33.97;18.13;;;;;;;0.29;100.00;99547.18;1822097;77;21384;-75
2020/12/14 09:09:35;;;;;;;39.25;18.85;;;;;;;0.28;99.96;99558.52;1822749;77;21561;-75
2020/12/14 09:12:11;;;;;;;50.30;23.45;;;;;;;0.27;99.92;99558.76;1829479;77;21459;-73
2020/12/14 09:14:39;;;;;;;47.88;25.75;;;;;;;0.27;100.00;99559.58;1816367;79;20995;-72
2020/12/14 09:17:16;;;;;;;43.63;22.50;;;;;;;0.26;99.90;99563.34;1816649;78;21466;-76
2020/12/14 09:19:51;;;;;;;31.48;17.05;;;;;;;0.25;99.81;99559.54;1827423;77;22333;-74
2020/12/14 09:22:22;;;;;;;28.57;14.95;;;;;;;0.23;99.82;99557.09;1803282;78;21017;-72
2020/12/14 09:24:50;;;;;;;30.13;15.40;;;;;;;0.23;99.81;99569.77;1821538;78;20982;-72
2020/12/14 09:27:19;;;;;;;27.30;14.53;;;;;;;0.22;99.80;99561.38;1822040;78;21184;-74
2020/12/14 09:29:47;;;;;;;26.68;14.23;;;;;;;0.21;99.84;99564.61;1813066;78;21057;-73
2020/12/14 09:32:15;;;;;;;27.45;14.70;;;;;;;0.22;99.87;99558.69;1821655;78;21198;-73
2020/12/14 09:34:43;;;;;;;28.85;15.85;;;;;;;0.23;99.87;99567.88;1770991;80;21037;-74
2020/12/14 09:37:11;;;;;;;29.98;15.05;;;;;;;0.25;99.87;99563.59;1795348;79;21001;-73
2020/12/14 09:39:39;;;;;;;39.95;20.50;;;;;;;0.26;99.82;99567.39;1763901;80;21010;-74
2020/12/14 09:42:07;;;;;;;30.08;14.28;;;;;;;0.27;99.76;99566.33;1763955;81;20915;-76
2020/12/14 09:44:34;;;;;;;25.65;13.78;;;;;;;0.28;99.65;99568.49;1763905;81;21269;-73
2020/12/14 09:47:04;;;;;;;26.50;13.62;;;;;;;0.25;99.42;99571.69;1767138;80;21093;-74
2020/12/14 09:49:32;;;;;;;24.87;13.32;;;;;;;0.22;99.38;99571.65;1786227;80;20958;-73
2020/12/14 09:52:00;;;;;;;27.93;14.53;;;;;;;0.22;99.45;99574.35;1786066;80;20990;-75
2020/12/14 09:54:27;;;;;;;29.55;15.08;;;;;;;0.22;99.41;99578.40;1786125;80;20923;-75
2020/12/14 09:56:56;;;;;;;31.40;14.83;;;;;;;0.23;99.41;99575.17;1748785;82;21383;-76
2020/12/14 09:59:24;;;;;;;32.05;15.55;;;;;;;0.23;99.36;99574.64;1716138;83;21097;-76
2020/12/14 10:01:52;;;;;;;189.72;62.35;;;;;;;0.25;99.38;99571.16;1745657;82;21022;-76
2020/12/14 10:04:20;;;;;;;126.78;51.77;;;;;;;0.28;99.36;99570.66;1724691;83;21576;-76
2020/12/14 10:06:49;;;;;;;80.77;35.20;;;;;;;0.31;99.32;99569.34;1724682;83;21168;-77
2020/12/14 10:09:16;;;;;;;33.35;16.07;;;;;;;0.31;99.25;99568.81;1724683;83;21444;-72
2020/12/14 10:11:45;;;;;;;35.25;17.70;;;;;;;0.30;99.10;99566.36;1724617;83;20979;-75
2020/12/14 10:14:13;;;;;;;50.00;21.82;;;;;;;0.27;98.98;99567.67;1724621;82;20911;-72
2020/12/14 10:16:41;;;;;;;41.65;20.35;;;;;;;0.26;98.99;99561.99;1724667;83;20983;-72
2020/12/14 10:19:10;;;;;;;49.20;23.12;;;;;;;0.27;99.03;99564.16;1733860;81;21014;-72
2020/12/14 10:21:39;;;;;;;60.75;29.25;;;;;;;0.28;99.02;99563.09;1739845;82;21377;-74
2020/12/14 10:24:06;;;;;;;44.93;23.38;;;;;;;0.28;98.99;99563.09;1727515;82;21117;-74
2020/12/14 10:26:36;;;;;;;47.15;23.42;;;;;;;0.26;98.99;99557.94;1724570;83;20923;-73
2020/12/14 10:29:04;;;;;;;46.85;23.42;;;;;;;0.30;99.25;99559.08;1724657;82;21596;-70
2020/12/14 10:31:32;;;;;;;53.30;26.40;;;;;;;0.33;99.23;99552.37;1724580;83;21030;-71
2020/12/14 10:34:01;;;;;;;47.20;22.70;;;;;;;0.33;99.15;99555.06;1731631;82;22110;-72
2020/12/14 10:36:29;;;;;;;48.78;23.02;;;;;;;0.35;99.17;99553.47;1739847;82;21152;-73
2020/12/14 10:38:57;;;;;;;41.80;20.35;;;;;;;0.36;99.15;99553.22;1737985;81;21585;-72
2020/12/14 10:41:24;;;;;;;42.58;20.15;;;;;;;0.38;99.21;99555.14;1732186;81;21018;-74
2020/12/14 10:43:52;;;;;;;41.33;19.07;;;;;;;0.42;99.23;99565.73;1724439;83;20990;-75
2020/12/14 10:46:24;;;;;;;41.75;18.95;;;;;;;0.43;99.12;99570.06;1724409;82;21224;-74
2020/12/14 10:48:52;;;;;;;;;;;;;;;0.43;98.99;99567.90;1722431;83;21054;-76
2020/12/14 10:51:20;;;;;;;45.85;18.67;;;;;;;0.42;98.92;99561.67;1718712;83;20156;-75
2020/12/14 10:53:48;;;;;;;37.30;18.48;;;;;;;0.41;98.89;99564.63;1722488;82;20896;-75
2020/12/14 10:56:16;;;;;;;42.98;18.37;;;;;;;0.40;98.85;99565.16;1732176;82;20929;-75
2020/12/14 10:58:44;;;;;;;36.38;18.20;;;;;;;0.41;98.87;99564.63;1719005;83;21259;-74
2020/12/14 11:01:12;;;;;;;45.50;20.48;;;;;;;0.41;98.81;99570.84;1718946;83;21560;-73
2020/12/14 11:03:40;;;;;;;46.28;21.10;;;;;;;0.42;98.79;99564.38;1718925;83;21126;-73
2020/12/14 11:06:08;;;;;;;44.25;20.85;;;;;;;0.42;98.70;99563.56;1718944;83;21179;-74
2020/12/14 11:08:35;;;;;;;37.08;18.82;;;;;;;0.44;98.75;99562.25;1721185;82;21148;-75
2020/12/14 11:11:03;;;;;;;43.13;20.82;;;;;;;0.46;98.77;99560.12;1718896;83;21344;-79
2020/12/14 11:13:31;;;;;;;39.00;19.23;;;;;;;0.48;98.73;99562.56;1718910;83;20988;-78
2020/12/14 11:16:00;;;;;;;41.23;21.20;;;;;;;0.50;98.75;99558.55;1719085;83;21574;-78
2020/12/14 11:18:29;;;;;;;49.08;23.05;;;;;;;0.53;98.74;99563.45;1719056;83;21162;-81
2020/12/14 11:20:58;;;;;;;51.23;24.57;;;;;;;0.54;98.66;99566.97;1718989;83;21096;-80
2020/12/14 11:23:25;;;;;;;57.05;25.08;;;;;;;0.51;98.44;99561.53;1719055;83;21158;-81
2020/12/14 11:25:54;;;;;;;58.83;26.15;;;;;;;0.46;98.23;99562.81;1723236;82;20975;-79
2020/12/14 11:28:21;;;;;;;59.67;25.90;;;;;;;0.42;98.12;99567.61;1718713;83;21608;-76
2020/12/14 11:30:49;;;;;;;54.35;24.57;;;;;;;0.38;98.15;99565.94;1718718;83;21556;-79